createdAt,value
2018-11-28T00:00:05.992Z,15.40
2018-11-28T00:01:05.977Z,14.80
2018-11-28T00:02:05.924Z,15.60
2018-11-28T00:03:05.988Z,15.70
2018-11-28T00:04:05.856Z,14.70
2018-11-28T00:05:05.895Z,15.40
2018-11-28T00:06:05.794Z,14.50
2018-11-28T00:07:05.797Z,15.00
2018-11-28T00:08:05.739Z,14.70
2018-11-28T00:09:05.842Z,15.30
2018-11-28T00:10:05.671Z,15.10
2018-11-28T00:11:05.739Z,15.00
2018-11-28T00:12:05.611Z,15.10
2018-11-28T00:13:05.643Z,16.00
2018-11-28T00:14:05.547Z,15.30
2018-11-28T00:15:05.551Z,15.00
2018-11-28T00:16:05.486Z,15.10
2018-11-28T00:17:05.565Z,15.60
2018-11-28T00:18:05.453Z,14.10
2018-11-28T00:19:07.079Z,14.70
2018-11-28T00:20:07.054Z,15.20
2018-11-28T00:21:05.387Z,15.70
2018-11-28T00:22:05.304Z,14.50
2018-11-28T00:23:05.299Z,15.50
2018-11-28T00:24:05.242Z,15.90
2018-11-28T00:25:05.323Z,15.70
2018-11-28T00:26:05.183Z,15.10
2018-11-28T00:27:05.225Z,15.20
2018-11-28T00:28:05.135Z,15.30
2018-11-28T00:29:05.135Z,14.60
2018-11-28T00:30:05.058Z,15.40
2018-11-28T00:31:05.142Z,15.50
2018-11-28T00:32:04.999Z,15.60
2018-11-28T00:33:05.055Z,15.30
2018-11-28T00:34:04.940Z,15.20
2018-11-28T00:35:04.966Z,15.10
2018-11-28T00:36:04.904Z,14.50
2018-11-28T00:37:04.884Z,14.90
2018-11-28T00:38:04.822Z,14.60
2018-11-28T00:39:04.890Z,15.30
2018-11-28T00:40:04.792Z,15.90
2018-11-28T00:41:04.795Z,15.30
2018-11-28T00:42:04.707Z,15.30
2018-11-28T00:43:04.710Z,14.80
2018-11-28T00:44:04.643Z,14.40
2018-11-28T00:45:04.725Z,15.10
2018-11-28T00:46:04.585Z,14.40
2018-11-28T00:47:04.637Z,14.90
2018-11-28T00:48:04.525Z,14.80
2018-11-28T00:49:04.547Z,15.90
2018-11-28T00:50:04.467Z,16.60
2018-11-28T00:51:04.454Z,15.30
2018-11-28T00:52:04.407Z,14.00
2018-11-28T00:53:04.493Z,15.40
2018-11-28T00:54:04.346Z,15.90
2018-11-28T00:55:04.385Z,16.00
2018-11-28T00:56:04.280Z,14.40
2018-11-28T00:57:04.291Z,14.30
2018-11-28T00:58:04.237Z,14.90
2018-11-28T00:59:04.300Z,14.40
2018-11-28T01:00:04.168Z,15.40
2018-11-28T01:01:04.210Z,16.00
2018-11-28T01:02:04.124Z,14.70
2018-11-28T01:03:04.121Z,16.00
2018-11-28T01:04:04.042Z,15.60
2018-11-28T01:05:04.032Z,16.20
2018-11-28T01:06:03.982Z,15.80
2018-11-28T01:07:04.041Z,15.10
2018-11-28T01:08:03.930Z,14.40
2018-11-28T01:09:03.956Z,16.30
2018-11-28T01:10:03.867Z,14.80
2018-11-28T01:11:03.863Z,16.30
2018-11-28T01:12:03.807Z,15.30
2018-11-28T01:13:03.876Z,15.80
2018-11-28T01:14:03.742Z,15.30
2018-11-28T01:15:03.790Z,15.10
2018-11-28T01:16:03.681Z,15.90
2018-11-28T01:17:03.702Z,14.30
2018-11-28T01:18:03.622Z,15.60
2018-11-28T01:19:03.608Z,15.40
2018-11-28T01:20:03.560Z,15.50
2018-11-28T01:21:03.624Z,15.10
2018-11-28T01:22:03.496Z,16.30
2018-11-28T01:23:03.530Z,15.40
2018-11-28T01:24:03.433Z,16.10
2018-11-28T01:25:03.441Z,16.40
2018-11-28T01:26:03.370Z,16.70
2018-11-28T01:27:03.480Z,15.60
2018-11-28T01:28:03.310Z,15.70
2018-11-28T01:29:03.368Z,15.80
2018-11-28T01:30:03.249Z,15.60
2018-11-28T01:31:04.298Z,16.90
2018-11-28T01:32:03.189Z,16.60
2018-11-28T01:33:03.185Z,15.80
2018-11-28T01:34:03.131Z,16.40
2018-11-28T01:35:03.204Z,16.50
2018-11-28T01:36:03.074Z,15.20
2018-11-28T01:37:03.108Z,14.40
2018-11-28T01:38:03.017Z,15.90
2018-11-28T01:39:03.022Z,15.30
2018-11-28T01:40:02.947Z,14.70
2018-11-28T01:41:02.946Z,16.10
2018-11-28T01:42:02.907Z,16.00
2018-11-28T01:43:02.944Z,16.70
2018-11-28T01:44:02.830Z,15.90
2018-11-28T01:45:02.856Z,14.60
2018-11-28T01:46:02.781Z,15.00
2018-11-28T01:47:02.765Z,14.40
2018-11-28T01:48:02.711Z,16.40
2018-11-28T01:49:02.777Z,15.50
2018-11-28T01:50:02.651Z,15.50
2018-11-28T01:51:02.686Z,15.30
2018-11-28T01:52:02.592Z,15.60
2018-11-28T01:53:02.602Z,15.90
2018-11-28T01:54:02.539Z,15.60
2018-11-28T01:55:02.612Z,16.00
2018-11-28T01:56:02.475Z,15.90
2018-11-28T01:57:02.526Z,15.70
2018-11-28T01:58:02.425Z,15.10
2018-11-28T01:59:02.438Z,16.50
2018-11-28T02:00:02.349Z,14.70
2018-11-28T02:01:02.349Z,15.40
2018-11-28T02:02:02.289Z,16.40
2018-11-28T02:03:02.352Z,16.30
2018-11-28T02:04:02.226Z,14.50
2018-11-28T02:05:02.202Z,15.00
2018-11-28T02:06:02.169Z,15.70
2018-11-28T02:07:02.179Z,15.10
2018-11-28T02:08:02.108Z,15.30
2018-11-28T02:09:04.141Z,15.30
2018-11-28T02:10:02.041Z,15.40
2018-11-28T02:11:02.110Z,15.40
2018-11-28T02:12:01.988Z,15.30
2018-11-28T02:13:02.012Z,16.10
2018-11-28T02:14:01.939Z,15.20
2018-11-28T02:15:08.740Z,16.60
2018-11-28T02:16:01.874Z,15.20
2018-11-28T02:17:01.941Z,15.30
2018-11-28T02:18:01.809Z,15.90
2018-11-28T02:19:01.855Z,15.20
2018-11-28T02:20:01.750Z,15.20
2018-11-28T02:21:01.853Z,15.10
2018-11-28T02:22:01.700Z,15.10
2018-11-28T02:23:01.767Z,15.10
2018-11-28T02:24:01.628Z,16.10
2018-11-28T02:25:01.679Z,17.30
2018-11-28T02:26:01.569Z,15.20
2018-11-28T02:27:01.590Z,15.30
2018-11-28T02:28:01.510Z,16.20
2018-11-28T02:29:01.498Z,16.60
2018-11-28T02:30:01.453Z,15.20
2018-11-28T02:31:01.513Z,17.80
2018-11-28T02:32:01.390Z,15.70
2018-11-28T02:33:01.423Z,15.20
2018-11-28T02:34:01.331Z,15.20
2018-11-28T02:35:01.336Z,16.70
2018-11-28T02:36:01.278Z,15.60
2018-11-28T02:37:01.351Z,16.40
2018-11-28T02:38:01.232Z,16.70
2018-11-28T02:39:01.264Z,16.60
2018-11-28T02:40:01.155Z,15.90
2018-11-28T02:41:01.166Z,16.00
2018-11-28T02:42:01.093Z,15.80
2018-11-28T02:43:01.081Z,15.30
2018-11-28T02:44:01.024Z,15.80
2018-11-28T02:45:01.091Z,15.40
2018-11-28T02:46:00.965Z,15.10
2018-11-28T02:47:00.999Z,14.50
2018-11-28T02:48:00.904Z,16.20
2018-11-28T02:49:00.915Z,16.10
2018-11-28T02:50:00.854Z,15.60
2018-11-28T02:51:00.926Z,15.90
2018-11-28T02:52:00.791Z,15.80
2018-11-28T02:53:00.832Z,14.90
2018-11-28T02:54:00.735Z,15.20
2018-11-28T02:55:00.751Z,15.80
2018-11-28T02:56:00.665Z,15.70
2018-11-28T02:57:00.654Z,15.40
2018-11-28T02:58:00.627Z,16.40
2018-11-28T02:59:00.669Z,15.20
2018-11-28T03:00:00.535Z,34.20
2018-11-28T03:01:00.581Z,16.90
2018-11-28T03:02:00.480Z,16.10
2018-11-28T03:03:00.484Z,14.60
2018-11-28T03:04:00.424Z,15.10
2018-11-28T03:05:00.495Z,16.20
2018-11-28T03:06:00.372Z,15.90
2018-11-28T03:07:00.413Z,16.00
2018-11-28T03:08:00.305Z,15.00
2018-11-28T03:09:00.316Z,16.30
2018-11-28T03:10:00.249Z,16.40
2018-11-28T03:11:01.254Z,15.40
2018-11-28T03:12:00.183Z,15.30
2018-11-28T03:13:01.164Z,15.70
2018-11-28T03:14:00.128Z,16.00
2018-11-28T03:15:00.154Z,15.40
2018-11-28T03:16:00.060Z,15.80
2018-11-28T03:17:00.067Z,16.60
2018-11-28T03:18:00.009Z,16.10
2018-11-28T03:19:00.084Z,15.60
2018-11-28T03:19:59.944Z,16.80
2018-11-28T03:20:59.987Z,14.40
2018-11-28T03:21:59.878Z,15.60
2018-11-28T03:22:59.897Z,15.80
2018-11-28T03:23:59.814Z,15.70
2018-11-28T03:24:59.812Z,16.10
2018-11-28T03:25:59.756Z,16.20
2018-11-28T03:26:59.821Z,15.10
2018-11-28T03:27:59.703Z,15.90
2018-11-28T03:29:00.764Z,16.30
2018-11-28T03:29:59.630Z,15.50
2018-11-28T03:30:59.646Z,17.20
2018-11-28T03:31:59.575Z,16.80
2018-11-28T03:32:59.555Z,15.40
2018-11-28T03:33:59.505Z,16.20
2018-11-28T03:34:59.564Z,16.40
2018-11-28T03:35:59.462Z,16.20
2018-11-28T03:36:59.478Z,15.40
2018-11-28T03:37:59.381Z,16.50
2018-11-28T03:38:59.387Z,16.00
2018-11-28T03:39:59.327Z,15.20
2018-11-28T03:40:59.394Z,15.30
2018-11-28T03:41:59.270Z,15.90
2018-11-28T03:42:59.311Z,17.80
2018-11-28T03:43:59.205Z,16.40
2018-11-28T03:44:59.225Z,15.50
2018-11-28T03:45:59.138Z,15.60
2018-11-28T03:46:59.134Z,16.10
2018-11-28T03:47:59.072Z,15.80
2018-11-28T03:48:59.148Z,15.70
2018-11-28T03:50:00.600Z,16.10
2018-11-28T03:51:00.534Z,14.70
2018-11-28T03:51:58.962Z,15.40
2018-11-28T03:53:00.508Z,15.60
2018-11-28T03:54:00.600Z,17.10
2018-11-28T03:54:59.834Z,16.10
2018-11-28T03:55:58.833Z,16.10
2018-11-28T03:56:58.802Z,16.20
2018-11-28T03:57:58.845Z,16.40
2018-11-28T03:58:58.740Z,16.00
2018-11-28T03:59:58.708Z,15.90
2018-11-28T04:00:58.743Z,16.30
2018-11-28T04:02:02.285Z,16.50
2018-11-28T04:03:07.265Z,16.50
2018-11-28T04:04:01.006Z,15.50
2018-11-28T04:05:06.918Z,16.70
2018-11-28T04:06:00.015Z,16.00
2018-11-28T04:07:06.542Z,16.00
2018-11-28T04:08:00.409Z,15.60
2018-11-28T04:08:59.045Z,16.90
2018-11-28T04:09:59.896Z,16.80
2018-11-28T04:10:59.922Z,16.90
2018-11-28T04:11:59.611Z,16.80
2018-11-28T04:12:59.108Z,54.70
2018-11-28T04:13:58.710Z,15.60
2018-11-28T04:15:01.313Z,16.50
2018-11-28T04:15:58.661Z,15.90
2018-11-28T04:16:58.289Z,14.80
2018-11-28T04:17:58.392Z,15.50
2018-11-28T04:18:59.233Z,16.00
2018-11-28T04:19:58.343Z,16.70
2018-11-28T04:20:58.161Z,39.20
2018-11-28T04:21:58.487Z,68.00
2018-11-28T04:22:59.284Z,65.90
2018-11-28T04:30:22.153Z,28.30
2018-11-28T04:43:57.494Z,24.80
2018-11-28T04:44:49.382Z,16.10
2018-11-28T04:45:49.391Z,15.10
2018-11-28T04:46:49.578Z,16.50
2018-11-28T04:47:49.492Z,16.20
2018-11-28T04:48:49.324Z,16.90
2018-11-28T04:49:51.383Z,17.10
2018-11-28T04:50:49.208Z,16.90
2018-11-28T04:51:50.199Z,16.70
2018-11-28T04:52:49.325Z,16.50
2018-11-28T04:53:49.217Z,15.30
2018-11-28T04:54:49.053Z,16.90
2018-11-28T05:00:31.180Z,25.10
2018-11-28T05:01:31.076Z,16.20
2018-11-28T05:02:31.328Z,16.60
2018-11-28T05:03:32.029Z,16.00
2018-11-28T05:08:03.790Z,30.90
2018-11-28T05:09:03.746Z,16.00
2018-11-28T05:10:03.750Z,16.20
2018-11-28T05:11:03.624Z,16.20
2018-11-28T05:12:03.996Z,16.40
2018-11-28T05:13:03.556Z,16.80
2018-11-28T05:14:04.676Z,15.50
2018-11-28T05:15:04.125Z,16.60
2018-11-28T05:16:03.482Z,15.50
2018-11-28T05:17:03.484Z,15.90
2018-11-28T05:18:03.553Z,16.30
2018-11-28T05:19:03.417Z,15.60
2018-11-28T05:20:03.366Z,16.40
2018-11-28T05:21:03.296Z,16.50
2018-11-28T05:22:03.357Z,16.00
2018-11-28T05:23:03.324Z,17.00
2018-11-28T05:25:55.525Z,33.60
2018-11-28T05:26:56.590Z,15.10
2018-11-28T05:28:58.853Z,23.10
2018-11-28T05:29:58.459Z,14.60
2018-11-28T05:30:59.203Z,15.20
2018-11-28T05:31:59.605Z,16.30
2018-11-28T05:32:58.811Z,15.40
2018-11-28T05:33:58.891Z,15.00
2018-11-28T05:34:59.459Z,16.00
2018-11-28T05:35:58.945Z,16.30
2018-11-28T05:36:58.205Z,16.60
2018-11-28T05:37:58.244Z,15.90
2018-11-28T05:39:00.366Z,16.30
2018-11-28T05:39:58.494Z,16.00
2018-11-28T05:40:58.550Z,16.10
2018-11-28T05:41:58.211Z,16.60
2018-11-28T05:42:58.274Z,16.30
2018-11-28T05:43:58.252Z,16.00
2018-11-28T05:44:59.117Z,16.90
2018-11-28T05:45:59.677Z,16.00
2018-11-28T05:46:59.590Z,16.00
2018-11-28T05:47:57.946Z,15.50
2018-11-28T05:50:10.990Z,27.70
2018-11-28T05:51:12.129Z,16.40
2018-11-28T05:52:12.207Z,15.20
2018-11-28T05:53:10.823Z,16.30
2018-11-28T05:54:10.820Z,16.40
2018-11-28T05:55:11.207Z,15.90
2018-11-28T05:56:10.610Z,16.70
2018-11-28T05:57:10.661Z,15.30
2018-11-28T05:58:10.610Z,16.30
2018-11-28T05:59:10.603Z,16.90
2018-11-28T06:00:10.628Z,15.70
2018-11-28T06:01:11.716Z,15.50
2018-11-28T06:02:10.435Z,16.30
2018-11-28T06:03:10.394Z,15.50
2018-11-28T06:04:10.429Z,16.00
2018-11-28T06:05:12.385Z,16.00
2018-11-28T06:06:10.259Z,15.70
2018-11-28T06:07:10.450Z,15.40
2018-11-28T06:08:10.378Z,15.40
2018-11-28T06:09:11.130Z,15.40
2018-11-28T06:10:10.183Z,16.30
2018-11-28T06:11:10.156Z,15.30
2018-11-28T06:12:10.321Z,15.90
2018-11-28T06:13:11.817Z,15.90
2018-11-28T06:14:11.986Z,15.60
2018-11-28T06:15:11.145Z,15.60
2018-11-28T06:16:10.474Z,16.00
2018-11-28T06:17:10.368Z,15.80
2018-11-28T06:19:03.581Z,20.90
2018-11-28T06:20:03.581Z,15.60
2018-11-28T06:21:03.693Z,15.20
2018-11-28T06:22:03.495Z,14.20
2018-11-28T06:23:03.618Z,17.10
2018-11-28T06:24:03.484Z,16.10
2018-11-28T06:25:03.322Z,16.40
2018-11-28T06:26:03.437Z,16.70
2018-11-28T06:27:04.701Z,17.30
2018-11-28T06:28:03.280Z,16.40
2018-11-28T06:29:10.307Z,16.20
2018-11-28T06:30:03.286Z,15.20
2018-11-28T06:31:03.394Z,16.00
2018-11-28T06:32:03.020Z,16.40
2018-11-28T06:33:04.221Z,16.40
2018-11-28T06:34:02.968Z,16.30
2018-11-28T06:35:49.462Z,18.90
2018-11-28T06:36:49.577Z,17.00
2018-11-28T06:37:49.506Z,16.20
2018-11-28T06:38:49.303Z,16.50
2018-11-28T06:39:49.236Z,16.60
2018-11-28T06:40:49.205Z,16.10
2018-11-28T06:41:49.283Z,16.90
2018-11-28T06:42:49.158Z,17.10
2018-11-28T06:43:49.321Z,17.50
2018-11-28T06:45:40.639Z,19.90
2018-11-28T06:46:40.749Z,16.10
2018-11-28T06:47:40.641Z,16.50
2018-11-28T06:48:40.826Z,16.10
2018-11-28T06:49:40.532Z,16.10
2018-11-28T06:50:40.508Z,17.00
2018-11-28T06:51:40.549Z,16.20
2018-11-28T06:52:40.534Z,15.80
2018-11-28T06:53:40.489Z,16.50
2018-11-28T06:54:40.601Z,15.50
2018-11-28T06:55:40.524Z,16.50
2018-11-28T06:56:40.307Z,15.30
2018-11-28T06:57:40.243Z,16.70
2018-11-28T06:58:40.255Z,15.80
2018-11-28T06:59:40.187Z,14.90
2018-11-28T07:00:40.319Z,14.80
2018-11-28T07:01:40.122Z,13.80
2018-11-28T07:02:40.179Z,15.10
2018-11-28T07:03:40.052Z,15.30
2018-11-28T07:04:40.094Z,14.90
2018-11-28T07:05:39.997Z,15.20
2018-11-28T07:06:39.963Z,15.50
2018-11-28T07:07:39.934Z,14.20
2018-11-28T07:08:39.917Z,15.00
2018-11-28T07:09:39.868Z,16.30
2018-11-28T07:10:39.843Z,15.90
2018-11-28T07:11:39.804Z,15.00
2018-11-28T07:12:39.775Z,14.30
2018-11-28T07:13:39.816Z,14.70
2018-11-28T07:14:39.701Z,15.40
2018-11-28T07:15:39.704Z,15.40
2018-11-28T07:16:39.647Z,15.60
2018-11-28T07:17:39.712Z,14.80
2018-11-28T07:18:39.587Z,14.90
2018-11-28T07:19:39.624Z,15.40
2018-11-28T07:20:39.521Z,16.10
2018-11-28T07:21:39.539Z,15.00
2018-11-28T07:22:39.451Z,15.80
2018-11-28T07:23:39.451Z,15.60
2018-11-28T07:24:39.392Z,15.30
2018-11-28T07:25:39.363Z,16.10
2018-11-28T07:26:41.414Z,15.60
2018-11-28T07:27:44.837Z,14.50
2018-11-28T07:28:39.405Z,15.40
2018-11-28T07:29:39.231Z,15.10
2018-11-28T07:30:39.240Z,15.60
2018-11-28T07:31:39.196Z,15.00
2018-11-28T07:32:39.262Z,15.30
2018-11-28T07:33:39.111Z,14.50
2018-11-28T07:34:39.077Z,15.20
2018-11-28T07:35:39.048Z,14.20
2018-11-28T07:36:39.025Z,15.70
2018-11-28T07:37:39.082Z,15.30
2018-11-28T07:38:38.952Z,15.40
2018-11-28T07:39:38.997Z,15.80
2018-11-28T07:40:38.902Z,15.00
2018-11-28T07:41:38.908Z,14.80
2018-11-28T07:42:38.823Z,14.70
2018-11-28T07:43:38.818Z,14.70
2018-11-28T07:44:38.756Z,14.90
2018-11-28T07:45:38.829Z,14.40
2018-11-28T07:46:38.699Z,14.80
2018-11-28T07:47:38.743Z,14.40
2018-11-28T07:48:38.665Z,15.20
2018-11-28T07:49:38.656Z,16.10
2018-11-28T07:50:38.571Z,15.30
2018-11-28T07:51:38.632Z,14.70
2018-11-28T07:52:38.505Z,15.00
2018-11-28T07:53:38.580Z,15.40
2018-11-28T07:54:38.465Z,15.10
2018-11-28T07:55:38.481Z,15.20
2018-11-28T07:56:38.377Z,14.90
2018-11-28T07:57:38.355Z,15.40
2018-11-28T07:58:38.318Z,15.30
2018-11-28T07:59:38.284Z,14.10
2018-11-28T08:00:38.249Z,13.80
2018-11-28T08:01:38.225Z,14.80
2018-11-28T08:02:38.216Z,15.70
2018-11-28T08:03:38.159Z,15.40
2018-11-28T08:04:38.127Z,14.40
2018-11-28T08:05:38.112Z,14.50
2018-11-28T08:06:38.067Z,15.40
2018-11-28T08:07:38.045Z,15.00
2018-11-28T08:08:38.100Z,14.30
2018-11-28T08:09:37.965Z,15.00
2018-11-28T08:10:37.992Z,14.20
2018-11-28T08:11:38.205Z,15.60
2018-11-28T08:12:37.897Z,14.20
2018-11-28T08:13:37.856Z,15.20
2018-11-28T08:14:37.908Z,14.60
2018-11-28T08:15:37.784Z,14.60
2018-11-28T08:16:37.822Z,14.50
2018-11-28T08:17:37.720Z,13.20
2018-11-28T08:18:37.684Z,14.50
2018-11-28T08:19:37.786Z,14.40
2018-11-28T08:20:37.661Z,14.20
2018-11-28T08:21:37.622Z,15.10
2018-11-28T08:22:37.562Z,13.90
2018-11-28T08:23:37.639Z,14.50
2018-11-28T08:24:37.560Z,13.30
2018-11-28T08:25:37.542Z,14.50
2018-11-28T08:26:37.432Z,13.80
2018-11-28T08:27:37.403Z,13.70
2018-11-28T08:28:37.368Z,14.60
2018-11-28T08:29:37.407Z,14.30
2018-11-28T08:30:37.315Z,14.70
2018-11-28T08:31:37.320Z,13.80
2018-11-28T08:32:37.245Z,13.60
2018-11-28T08:33:37.301Z,14.30
2018-11-28T08:34:37.186Z,14.90
2018-11-28T08:35:37.246Z,14.10
2018-11-28T08:36:37.120Z,14.40
2018-11-28T08:37:37.157Z,14.40
2018-11-28T08:38:37.046Z,13.10
2018-11-28T08:39:37.067Z,15.00
2018-11-28T08:40:37.060Z,13.50
2018-11-28T08:41:37.079Z,14.40
2018-11-28T08:42:36.916Z,14.30
2018-11-28T08:43:36.992Z,14.30
2018-11-28T08:44:36.862Z,14.60
2018-11-28T08:45:36.920Z,15.30
2018-11-28T08:46:36.793Z,14.70
2018-11-28T08:47:36.829Z,14.90
2018-11-28T08:48:36.726Z,14.70
2018-11-28T08:49:36.754Z,14.50
2018-11-28T08:50:36.663Z,15.30
2018-11-28T08:51:37.392Z,14.40
2018-11-28T08:52:36.598Z,14.40
2018-11-28T08:53:36.568Z,14.70
2018-11-28T08:54:37.591Z,14.70
2018-11-28T08:55:36.505Z,14.00
2018-11-28T08:56:36.592Z,14.90
2018-11-28T08:57:36.437Z,14.60
2018-11-28T08:58:36.500Z,14.70
2018-11-28T08:59:36.372Z,14.60
2018-11-28T09:00:36.407Z,13.80
2018-11-28T09:01:36.318Z,15.10
2018-11-28T09:02:36.321Z,14.90
2018-11-28T09:03:36.248Z,14.00
2018-11-28T09:04:36.330Z,14.20
2018-11-28T09:05:36.190Z,13.80
2018-11-28T09:06:37.266Z,14.10
2018-11-28T09:07:36.118Z,13.00
2018-11-28T09:08:36.170Z,14.10
2018-11-28T09:09:36.061Z,14.00
2018-11-28T09:10:37.088Z,13.90
2018-11-28T09:11:35.990Z,13.30
2018-11-28T09:12:36.078Z,14.20
2018-11-28T09:13:35.934Z,14.40
2018-11-28T09:14:35.989Z,13.50
2018-11-28T09:15:35.903Z,12.60
2018-11-28T09:16:36.052Z,15.50
2018-11-28T09:17:35.806Z,15.10
2018-11-28T09:18:35.819Z,14.30
2018-11-28T09:19:35.741Z,14.30
2018-11-28T09:20:35.826Z,14.40
2018-11-28T09:21:35.673Z,14.00
2018-11-28T09:22:36.760Z,14.00
2018-11-28T09:23:35.611Z,14.40
2018-11-28T09:24:35.650Z,13.80
2018-11-28T09:25:35.548Z,14.10
2018-11-28T09:26:35.560Z,14.60
2018-11-28T09:27:35.493Z,13.80
2018-11-28T09:28:35.470Z,13.70
2018-11-28T09:29:35.426Z,15.10
2018-11-28T09:30:36.507Z,14.00
2018-11-28T09:31:35.381Z,13.60
2018-11-28T09:32:35.394Z,14.70
2018-11-28T09:33:35.298Z,14.50
2018-11-28T09:34:35.291Z,14.00
2018-11-28T09:35:35.240Z,14.90
2018-11-28T09:36:35.190Z,14.30
2018-11-28T09:37:35.198Z,14.60
2018-11-28T09:38:35.137Z,14.40
2018-11-28T09:39:36.869Z,14.60
2018-11-28T09:40:35.116Z,13.70
2018-11-28T09:41:35.063Z,14.80
2018-11-28T09:42:35.026Z,14.00
2018-11-28T09:43:34.982Z,14.40
2018-11-28T09:44:35.042Z,14.40
2018-11-28T09:45:34.904Z,14.00
2018-11-28T09:46:34.946Z,14.10
2018-11-28T09:47:34.849Z,15.00
2018-11-28T09:48:34.878Z,14.00
2018-11-28T09:49:34.770Z,13.80
2018-11-28T09:50:34.770Z,14.60
2018-11-28T09:51:34.744Z,14.70
2018-11-28T09:52:34.716Z,13.80
2018-11-28T09:53:34.689Z,14.50
2018-11-28T09:54:34.630Z,13.50
2018-11-28T09:55:34.599Z,12.90
2018-11-28T09:56:34.548Z,13.40
2018-11-28T09:57:34.616Z,14.00
2018-11-28T09:58:34.551Z,13.70
2018-11-28T09:59:34.450Z,13.40
2018-11-28T10:00:34.424Z,13.70
2018-11-28T10:01:34.534Z,14.90
2018-11-28T10:02:34.357Z,14.20
2018-11-28T10:03:34.347Z,14.00
2018-11-28T10:04:34.289Z,13.70
2018-11-28T10:05:34.369Z,14.60
2018-11-28T10:06:34.225Z,14.10
2018-11-28T10:07:34.280Z,14.00
2018-11-28T10:08:34.168Z,13.50
2018-11-28T10:09:34.185Z,14.00
2018-11-28T10:10:34.149Z,13.80
2018-11-28T10:11:34.101Z,14.10
2018-11-28T10:12:34.053Z,13.50
2018-11-28T10:13:34.109Z,14.80
2018-11-28T10:14:33.978Z,14.40
2018-11-28T10:15:35.717Z,13.70
2018-11-28T10:16:33.907Z,14.30
2018-11-28T10:17:33.969Z,13.50
2018-11-28T10:18:33.839Z,14.50
2018-11-28T10:19:33.848Z,14.40
2018-11-28T10:20:33.773Z,13.90
2018-11-28T10:21:33.757Z,14.00
2018-11-28T10:22:33.708Z,14.50
2018-11-28T10:23:33.782Z,14.90
2018-11-28T10:24:34.407Z,13.70
2018-11-28T10:25:33.618Z,13.80
2018-11-28T10:26:33.639Z,14.20
2018-11-28T10:27:33.591Z,12.80
2018-11-28T10:28:33.518Z,13.40
2018-11-28T10:29:33.479Z,14.20
2018-11-28T10:30:33.455Z,13.30
2018-11-28T10:31:33.417Z,14.30
2018-11-28T10:32:33.385Z,13.80
2018-11-28T10:33:33.357Z,13.10
2018-11-28T10:34:33.318Z,14.30
2018-11-28T10:35:33.292Z,14.10
2018-11-28T10:36:33.256Z,13.90
2018-11-28T10:37:33.230Z,13.90
2018-11-28T10:38:33.197Z,13.30
2018-11-28T10:39:33.159Z,14.00
2018-11-28T10:40:33.125Z,14.20
2018-11-28T10:41:33.097Z,14.20
2018-11-28T10:42:33.073Z,14.00
2018-11-28T10:43:33.035Z,13.80
2018-11-28T10:44:33.002Z,13.80
2018-11-28T10:45:32.975Z,13.50
2018-11-28T10:46:32.934Z,14.80
2018-11-28T10:47:32.901Z,13.00
2018-11-28T10:48:32.873Z,13.90
2018-11-28T10:49:32.837Z,14.50
2018-11-28T10:50:32.816Z,14.50
2018-11-28T10:51:32.774Z,13.50
2018-11-28T10:52:32.751Z,13.90
2018-11-28T10:53:32.710Z,13.70
2018-11-28T10:54:32.690Z,13.20
2018-11-28T10:55:32.645Z,13.80
2018-11-28T10:56:32.613Z,13.20
2018-11-28T10:57:32.586Z,13.40
2018-11-28T10:58:32.544Z,14.30
2018-11-28T10:59:32.519Z,13.70
2018-11-28T11:00:32.488Z,13.70
2018-11-28T11:01:32.458Z,13.90
2018-11-28T11:02:32.420Z,13.40
2018-11-28T11:03:32.405Z,12.90
2018-11-28T11:04:32.358Z,14.00
2018-11-28T11:05:32.327Z,13.10
2018-11-28T11:06:32.293Z,14.00
2018-11-28T11:07:32.263Z,13.80
2018-11-28T11:08:32.231Z,13.90
2018-11-28T11:09:32.328Z,13.40
2018-11-28T11:10:32.162Z,13.80
2018-11-28T11:11:32.134Z,14.50
2018-11-28T11:12:32.098Z,13.50
2018-11-28T11:13:32.070Z,13.20
2018-11-28T11:14:32.039Z,14.50
2018-11-28T11:15:32.001Z,13.90
2018-11-28T11:16:32.076Z,14.00
2018-11-28T11:17:31.938Z,13.80
2018-11-28T11:18:31.987Z,13.90
2018-11-28T11:19:31.877Z,13.80
2018-11-28T11:20:31.842Z,13.80
2018-11-28T11:21:31.813Z,13.70
2018-11-28T11:22:31.780Z,13.50
2018-11-28T11:23:31.744Z,13.60
2018-11-28T11:24:31.715Z,14.40
2018-11-28T11:25:31.712Z,13.20
2018-11-28T11:26:31.651Z,13.30
2018-11-28T11:27:31.613Z,13.40
2018-11-28T11:28:31.581Z,12.70
2018-11-28T11:29:31.549Z,13.50
2018-11-28T11:30:31.543Z,14.00
2018-11-28T11:31:31.681Z,14.10
2018-11-28T11:32:31.458Z,13.60
2018-11-28T11:33:31.463Z,13.90
2018-11-28T11:34:31.412Z,12.90
2018-11-28T11:35:31.390Z,13.10
2018-11-28T11:36:31.331Z,12.70
2018-11-28T11:37:31.389Z,13.40
2018-11-28T11:38:31.270Z,13.30
2018-11-28T11:39:31.243Z,12.70
2018-11-28T11:40:31.306Z,13.40
2018-11-28T11:41:31.194Z,13.00
2018-11-28T11:42:31.147Z,12.40
2018-11-28T11:43:31.108Z,13.60
2018-11-28T11:44:31.097Z,13.40
2018-11-28T11:45:31.047Z,13.10
2018-11-28T11:46:31.108Z,13.40
2018-11-28T11:47:30.977Z,12.10
2018-11-28T11:48:30.957Z,13.10
2018-11-28T11:49:30.924Z,13.70
2018-11-28T11:50:30.891Z,13.00
2018-11-28T11:51:30.860Z,13.60
2018-11-28T11:52:30.998Z,13.60
2018-11-28T11:53:30.794Z,12.40
2018-11-28T11:54:31.344Z,13.10
2018-11-28T11:55:30.731Z,12.50
2018-11-28T11:56:30.699Z,12.80
2018-11-28T11:57:30.673Z,13.70
2018-11-28T11:58:30.639Z,12.20
2018-11-28T11:59:30.605Z,12.90
2018-11-28T12:00:30.574Z,12.40
2018-11-28T12:01:30.546Z,12.90
2018-11-28T12:02:30.610Z,13.30
2018-11-28T12:03:30.483Z,13.10
2018-11-28T12:04:30.448Z,13.00
2018-11-28T12:05:30.429Z,12.80
2018-11-28T12:06:30.385Z,12.80
2018-11-28T12:07:30.435Z,13.10
2018-11-28T12:08:30.325Z,12.80
2018-11-28T12:09:30.373Z,12.90
2018-11-28T12:10:30.272Z,12.80
2018-11-28T12:11:30.363Z,13.60
2018-11-28T12:12:30.191Z,12.10
2018-11-28T12:13:30.273Z,12.90
2018-11-28T12:14:30.133Z,13.30
2018-11-28T12:15:30.105Z,13.60
2018-11-28T12:16:30.075Z,12.40
2018-11-28T12:17:30.117Z,13.10
2018-11-28T12:18:30.007Z,12.30
2018-11-28T12:19:29.971Z,12.70
2018-11-28T12:20:30.021Z,12.40
2018-11-28T12:21:29.904Z,12.90
2018-11-28T12:22:29.935Z,12.70
2018-11-28T12:23:29.851Z,12.60
2018-11-28T12:24:29.945Z,11.40
2018-11-28T12:25:29.776Z,12.80
2018-11-28T12:26:29.875Z,11.90
2018-11-28T12:27:29.712Z,11.50
2018-11-28T12:28:29.768Z,12.40
2018-11-28T12:29:29.666Z,11.60
2018-11-28T12:30:29.679Z,11.30
2018-11-28T12:31:29.590Z,11.40
2018-11-28T12:32:29.688Z,11.60
2018-11-28T12:33:29.515Z,11.30
2018-11-28T12:34:29.608Z,11.00
2018-11-28T12:35:29.472Z,11.90
2018-11-28T12:36:29.507Z,10.90
2018-11-28T12:37:29.392Z,11.00
2018-11-28T12:38:29.418Z,11.10
2018-11-28T12:39:29.324Z,12.50
2018-11-28T12:40:29.433Z,12.10
2018-11-28T12:41:29.264Z,11.00
2018-11-28T12:42:29.342Z,11.90
2018-11-28T12:43:29.739Z,11.30
2018-11-28T12:44:29.753Z,11.10
2018-11-28T12:45:29.145Z,10.80
2018-11-28T12:46:29.162Z,11.00
2018-11-28T12:47:29.079Z,12.30
2018-11-28T12:48:29.174Z,12.90
2018-11-28T12:49:29.002Z,11.80
2018-11-28T12:50:29.086Z,11.20
2018-11-28T12:51:28.940Z,10.50
2018-11-28T12:52:28.997Z,9.80
2018-11-28T12:53:28.910Z,10.60
2018-11-28T12:54:28.917Z,11.00
2018-11-28T12:55:28.811Z,11.00
2018-11-28T12:56:28.918Z,9.90
2018-11-28T12:57:28.745Z,11.20
2018-11-28T12:58:28.731Z,10.50
2018-11-28T12:59:28.684Z,10.30
2018-11-28T13:00:28.650Z,10.90
2018-11-28T13:01:28.616Z,11.30
2018-11-28T13:02:28.584Z,10.30
2018-11-28T13:03:28.556Z,10.60
2018-11-28T13:04:28.527Z,10.30
2018-11-28T13:05:28.572Z,10.40
2018-11-28T13:06:28.457Z,9.90
2018-11-28T13:07:28.426Z,9.90
2018-11-28T13:08:28.398Z,10.00
2018-11-28T13:09:28.363Z,10.00
2018-11-28T13:10:28.328Z,10.10
2018-11-28T13:11:28.309Z,9.10
2018-11-28T13:12:28.266Z,9.60
2018-11-28T13:13:28.239Z,10.10
2018-11-28T13:14:28.207Z,9.70
2018-11-28T13:15:28.167Z,9.00
2018-11-28T13:16:28.133Z,9.60
2018-11-28T13:17:28.113Z,10.10
2018-11-28T13:18:28.154Z,9.80
2018-11-28T13:19:28.061Z,9.30
2018-11-28T13:20:28.026Z,9.50
2018-11-28T13:21:27.976Z,9.20
2018-11-28T13:22:27.941Z,9.20
2018-11-28T13:23:27.931Z,9.60
2018-11-28T13:24:27.882Z,9.20
2018-11-28T13:25:27.847Z,8.70
2018-11-28T13:26:27.814Z,9.70